createdAt,value
2024-02-27T00:00:09.085Z,8.96
2024-02-27T00:02:40.355Z,8.94
2024-02-27T00:05:09.753Z,8.86
2024-02-27T00:07:37.878Z,8.77
2024-02-27T00:10:07.061Z,8.73
2024-02-27T00:12:37.699Z,8.74
2024-02-27T00:15:08.762Z,8.69
2024-02-27T00:17:37.417Z,8.70
2024-02-27T00:20:08.376Z,8.63
2024-02-27T00:22:36.606Z,8.60
2024-02-27T00:25:05.337Z,8.45
2024-02-27T00:27:33.934Z,8.50
2024-02-27T00:30:02.576Z,8.51
2024-02-27T00:32:32.586Z,8.56
2024-02-27T00:35:01.190Z,8.55
2024-02-27T00:37:29.482Z,8.49
2024-02-27T00:39:57.987Z,8.35
2024-02-27T00:42:26.470Z,8.29
2024-02-27T00:44:55.053Z,8.39
2024-02-27T00:47:23.909Z,8.33
2024-02-27T00:49:53.338Z,8.31
2024-02-27T00:52:23.024Z,8.18
2024-02-27T00:54:51.605Z,8.13
2024-02-27T00:57:20.165Z,8.04
2024-02-27T00:59:48.716Z,8.02
2024-02-27T01:02:17.212Z,8.04
2024-02-27T01:04:45.278Z,8.08
2024-02-27T01:07:15.336Z,8.07
2024-02-27T01:09:44.023Z,8.09
2024-02-27T01:12:12.674Z,8.03
2024-02-27T01:14:41.187Z,8.00
2024-02-27T01:17:09.697Z,7.93
2024-02-27T01:19:37.786Z,7.87
2024-02-27T01:22:06.381Z,7.77
2024-02-27T01:24:36.308Z,7.85
2024-02-27T01:27:05.436Z,7.86
2024-02-27T01:29:33.940Z,7.84
2024-02-27T01:32:02.463Z,7.82
2024-02-27T01:34:31.126Z,7.85
2024-02-27T01:36:59.704Z,7.91
2024-02-27T01:39:28.386Z,7.81
2024-02-27T01:41:58.526Z,7.76
2024-02-27T01:44:27.149Z,7.71
2024-02-27T01:46:55.243Z,7.67
2024-02-27T01:49:24.212Z,7.63
2024-02-27T01:51:53.030Z,7.64
2024-02-27T01:54:25.304Z,7.69
2024-02-27T01:56:55.181Z,7.61
2024-02-27T01:59:25.154Z,7.54
2024-02-27T02:01:53.583Z,7.53
2024-02-27T02:04:22.206Z,7.50
2024-02-27T02:06:51.310Z,7.44
2024-02-27T02:09:19.863Z,7.49
2024-02-27T02:11:48.714Z,7.50
2024-02-27T02:14:17.160Z,7.55
2024-02-27T02:16:46.940Z,7.53
2024-02-27T02:19:15.774Z,7.54
2024-02-27T02:21:50.283Z,7.51
2024-02-27T02:24:20.228Z,7.44
2024-02-27T02:26:48.845Z,7.45
2024-02-27T02:29:17.584Z,7.47
2024-02-27T02:31:45.753Z,7.43
2024-02-27T02:34:14.414Z,7.47
2024-02-27T02:36:45.146Z,7.42
2024-02-27T02:39:13.738Z,7.42
2024-02-27T02:41:42.228Z,7.40
2024-02-27T02:44:10.716Z,7.40
2024-02-27T02:46:40.311Z,7.41
2024-02-27T02:49:08.952Z,7.40
2024-02-27T02:51:37.661Z,7.37
2024-02-27T02:54:07.882Z,7.38
2024-02-27T02:56:36.475Z,7.38
2024-02-27T02:59:04.947Z,7.36
2024-02-27T03:01:32.981Z,7.35
2024-02-27T03:04:02.114Z,7.32
2024-02-27T03:06:30.987Z,7.27
2024-02-27T03:08:59.617Z,7.24
2024-02-27T03:11:29.725Z,7.27
2024-02-27T03:13:57.895Z,7.23
2024-02-27T03:16:26.393Z,7.19
2024-02-27T03:18:54.976Z,7.15
2024-02-27T03:21:23.616Z,7.09
2024-02-27T03:23:52.127Z,7.11
2024-02-27T03:26:22.899Z,7.04
2024-02-27T03:28:52.121Z,7.07
2024-02-27T03:31:20.596Z,7.04
2024-02-27T03:33:49.229Z,7.05
2024-02-27T03:36:18.020Z,6.97
2024-02-27T03:38:46.619Z,6.93
2024-02-27T03:41:15.425Z,6.88
2024-02-27T03:43:44.191Z,6.89
2024-02-27T03:46:14.109Z,6.97
2024-02-27T03:48:42.959Z,6.94
2024-02-27T03:51:11.851Z,6.92
2024-02-27T03:53:40.445Z,6.98
2024-02-27T03:56:09.362Z,6.93
2024-02-27T03:58:37.849Z,6.93
2024-02-27T04:01:06.515Z,6.89
2024-02-27T04:03:36.506Z,6.86
2024-02-27T04:06:07.110Z,6.85
2024-02-27T04:08:35.700Z,6.86
2024-02-27T04:11:05.322Z,6.83
2024-02-27T04:13:36.193Z,6.89
2024-02-27T04:16:06.035Z,6.87
2024-02-27T04:18:36.095Z,6.83
2024-02-27T04:21:05.316Z,6.80
2024-02-27T04:23:34.249Z,6.75
2024-02-27T04:26:03.425Z,6.76
2024-02-27T04:28:31.570Z,6.73
2024-02-27T04:31:00.140Z,6.73
2024-02-27T04:33:28.821Z,6.68
2024-02-27T04:35:58.859Z,6.64
2024-02-27T04:38:27.453Z,6.66
2024-02-27T04:40:55.606Z,6.70
2024-02-27T04:43:23.131Z,6.67
2024-02-27T04:45:51.598Z,6.68
2024-02-27T04:48:20.303Z,6.68
2024-02-27T04:50:48.841Z,6.69
2024-02-27T04:53:18.802Z,6.65
2024-02-27T04:55:46.920Z,6.69
2024-02-27T04:58:15.487Z,6.70
2024-02-27T05:00:44.032Z,6.66
2024-02-27T05:03:12.573Z,6.64
2024-02-27T05:05:41.164Z,6.61
2024-02-27T05:08:09.681Z,6.59
2024-02-27T05:10:39.145Z,6.54
2024-02-27T05:13:07.718Z,6.52
2024-02-27T05:15:36.392Z,6.51
2024-02-27T05:18:05.813Z,6.46
2024-02-27T05:20:34.426Z,6.47
2024-02-27T05:23:04.265Z,6.44
2024-02-27T05:25:32.307Z,6.41
2024-02-27T05:28:02.245Z,6.42
2024-02-27T05:30:31.675Z,6.39
2024-02-27T05:33:00.615Z,6.41
2024-02-27T05:35:29.275Z,6.41
2024-02-27T05:37:57.752Z,6.36
2024-02-27T05:40:25.823Z,6.37
2024-02-27T05:42:54.331Z,6.36
2024-02-27T05:45:24.252Z,6.44
2024-02-27T05:47:53.352Z,6.44
2024-02-27T05:50:21.990Z,6.42
2024-02-27T05:52:50.045Z,6.39
2024-02-27T05:55:18.609Z,6.38
2024-02-27T05:57:47.146Z,6.43
2024-02-27T06:00:17.120Z,6.44
2024-02-27T06:02:47.175Z,6.44
2024-02-27T06:05:15.937Z,6.48
2024-02-27T06:07:44.383Z,6.46
2024-02-27T06:10:12.870Z,6.43
2024-02-27T06:12:41.645Z,6.42
2024-02-27T06:15:11.384Z,6.44
2024-02-27T06:17:39.852Z,6.47
2024-02-27T06:20:31.612Z,6.48
2024-02-27T06:22:58.819Z,6.47
2024-02-27T06:25:27.402Z,6.44
2024-02-27T06:27:56.057Z,6.44
2024-02-27T06:30:24.763Z,6.41
2024-02-27T06:32:54.349Z,6.40
2024-02-27T06:35:25.368Z,6.39
2024-02-27T06:37:53.480Z,6.40
2024-02-27T06:40:22.059Z,6.41
2024-02-27T06:42:50.587Z,6.40
2024-02-27T06:45:19.246Z,6.42
2024-02-27T06:47:48.103Z,6.42
2024-02-27T06:50:17.796Z,6.43
2024-02-27T06:52:47.184Z,6.47
2024-02-27T06:55:15.796Z,6.51
2024-02-27T06:57:45.008Z,6.63
2024-02-27T07:00:14.238Z,6.76
2024-02-27T07:02:43.407Z,6.92
2024-02-27T07:05:13.511Z,7.02
2024-02-27T07:07:41.618Z,7.09
2024-02-27T07:10:14.002Z,7.19
2024-02-27T07:12:43.123Z,7.28
2024-02-27T07:15:12.066Z,7.21
2024-02-27T07:17:40.609Z,7.40
2024-02-27T07:20:10.655Z,7.52
2024-02-27T07:22:38.749Z,7.73
2024-02-27T07:25:09.864Z,7.91
2024-02-27T07:27:40.037Z,7.86
2024-02-27T07:30:11.210Z,7.86
2024-02-27T07:32:39.920Z,8.29
2024-02-27T07:35:10.257Z,8.64
2024-02-27T07:37:39.233Z,8.76
2024-02-27T07:40:09.228Z,8.80
2024-02-27T07:42:39.117Z,9.20
2024-02-27T07:45:08.393Z,8.95
2024-02-27T07:47:37.308Z,8.67
2024-02-27T07:50:07.535Z,8.58
2024-02-27T07:52:35.597Z,8.63
2024-02-27T07:55:04.108Z,8.48
2024-02-27T07:57:32.745Z,8.48
2024-02-27T08:00:02.858Z,8.43
2024-02-27T08:02:35.343Z,8.48
2024-02-27T08:05:04.294Z,8.66
2024-02-27T08:07:34.971Z,8.88
2024-02-27T08:10:03.525Z,8.88
2024-02-27T08:12:34.470Z,8.90
2024-02-27T08:15:04.836Z,9.18
2024-02-27T08:17:33.271Z,9.62
2024-02-27T08:20:02.037Z,10.00
2024-02-27T08:22:30.067Z,10.31
2024-02-27T08:24:58.904Z,10.46
2024-02-27T08:27:27.486Z,10.69
2024-02-27T08:29:56.065Z,11.27
2024-02-27T08:32:26.080Z,11.30
2024-02-27T08:34:54.377Z,11.04
2024-02-27T08:37:25.010Z,11.43
2024-02-27T08:39:53.588Z,11.67
2024-02-27T08:42:22.203Z,11.96
2024-02-27T08:44:50.774Z,12.12
2024-02-27T08:47:19.306Z,12.06
2024-02-27T08:49:48.863Z,12.11
2024-02-27T08:52:17.467Z,11.64
2024-02-27T08:54:46.029Z,11.65
2024-02-27T08:57:14.766Z,11.76
2024-02-27T08:59:44.665Z,12.32
2024-02-27T09:02:13.331Z,12.78
2024-02-27T09:04:41.694Z,12.51
2024-02-27T09:07:12.314Z,12.49
2024-02-27T09:09:41.161Z,12.52
2024-02-27T09:12:10.783Z,13.03
2024-02-27T09:14:39.564Z,12.49
2024-02-27T09:17:08.185Z,13.25
2024-02-27T09:19:37.025Z,13.63
2024-02-27T09:22:05.828Z,13.57
2024-02-27T09:24:36.392Z,14.12
2024-02-27T09:27:06.116Z,14.37
2024-02-27T09:29:35.464Z,13.61
2024-02-27T09:32:04.097Z,13.01
2024-02-27T09:34:32.231Z,12.89
2024-02-27T09:37:00.784Z,13.12
2024-02-27T09:39:29.298Z,13.58
2024-02-27T09:42:09.944Z,14.77
2024-02-27T09:44:40.146Z,15.66
2024-02-27T09:47:09.681Z,16.99
2024-02-27T09:49:44.123Z,16.80
2024-02-27T09:52:17.199Z,16.59
2024-02-27T09:54:47.506Z,16.75
2024-02-27T09:57:17.922Z,17.02
2024-02-27T09:59:47.526Z,16.62
2024-02-27T10:02:17.128Z,16.35
2024-02-27T10:04:45.404Z,16.20
2024-02-27T10:07:15.007Z,15.96
2024-02-27T10:09:46.445Z,16.42
2024-02-27T10:12:17.855Z,17.65
2024-02-27T10:14:46.934Z,19.23
2024-02-27T10:17:15.504Z,19.24
2024-02-27T10:19:44.154Z,20.24
2024-02-27T10:22:13.310Z,20.62
2024-02-27T10:24:42.178Z,18.85
2024-02-27T10:27:10.973Z,19.32
2024-02-27T10:29:42.843Z,17.61
2024-02-27T10:32:12.080Z,17.63
2024-02-27T10:34:42.613Z,17.02
2024-02-27T10:37:12.034Z,16.70
2024-02-27T10:39:40.830Z,16.16
2024-02-27T10:42:09.620Z,15.58
2024-02-27T10:44:38.142Z,15.03
2024-02-27T10:47:08.571Z,14.75
2024-02-27T10:49:37.084Z,14.73
2024-02-27T10:52:06.907Z,14.47
2024-02-27T10:54:35.603Z,14.67
2024-02-27T10:57:04.971Z,14.83
2024-02-27T10:59:34.937Z,14.74
2024-02-27T11:02:03.978Z,14.18
2024-02-27T11:04:37.496Z,14.30
2024-02-27T11:07:06.897Z,14.59
2024-02-27T11:09:36.613Z,14.25
2024-02-27T11:12:08.554Z,14.58
2024-02-27T11:14:39.265Z,14.66
2024-02-27T11:17:12.802Z,14.27
2024-02-27T11:19:47.948Z,14.27
2024-02-27T11:22:18.459Z,14.16
2024-02-27T11:24:48.538Z,14.49
2024-02-27T11:27:19.153Z,14.54
2024-02-27T11:29:48.053Z,14.87
2024-02-27T11:32:17.384Z,14.95
2024-02-27T11:34:48.530Z,14.92
2024-02-27T11:37:21.047Z,15.00
2024-02-27T11:39:50.000Z,15.06
2024-02-27T11:42:23.298Z,15.63
2024-02-27T11:45:08.505Z,15.45
2024-02-27T11:47:39.317Z,15.37
2024-02-27T11:50:09.888Z,14.99
2024-02-27T11:52:37.934Z,14.65
2024-02-27T11:55:08.184Z,14.49
2024-02-27T11:57:37.522Z,14.56
2024-02-27T12:00:10.253Z,14.56
2024-02-27T12:02:39.195Z,15.16
2024-02-27T12:05:10.092Z,14.95
2024-02-27T12:07:39.619Z,14.99
2024-02-27T12:10:10.626Z,15.25
2024-02-27T12:12:40.045Z,15.96
2024-02-27T12:15:09.715Z,16.44
2024-02-27T12:17:39.012Z,16.55
2024-02-27T12:20:11.322Z,16.24
2024-02-27T12:22:40.145Z,16.62
2024-02-27T12:25:10.178Z,16.89
2024-02-27T12:27:39.059Z,17.62
2024-02-27T12:30:11.390Z,16.72
2024-02-27T12:32:40.946Z,16.16
2024-02-27T12:35:12.756Z,16.55
2024-02-27T12:37:41.931Z,16.55
2024-02-27T12:40:13.743Z,16.78
2024-02-27T12:42:43.564Z,16.74
2024-02-27T12:45:13.181Z,17.13
2024-02-27T12:47:42.484Z,16.85
2024-02-27T12:50:13.137Z,16.65
2024-02-27T12:52:44.132Z,15.86
2024-02-27T12:55:14.308Z,15.26
2024-02-27T12:57:42.910Z,15.09
2024-02-27T13:00:13.841Z,15.22
2024-02-27T13:02:43.684Z,15.54
2024-02-27T13:05:14.334Z,15.98
2024-02-27T13:07:42.894Z,16.44
2024-02-27T13:10:12.830Z,17.03
2024-02-27T13:12:41.407Z,17.35
2024-02-27T13:15:10.551Z,17.94
2024-02-27T13:17:39.125Z,17.50
2024-02-27T13:20:08.453Z,16.89
2024-02-27T13:22:37.944Z,17.67
2024-02-27T13:25:07.001Z,17.50
2024-02-27T13:27:35.718Z,16.70
2024-02-27T13:30:05.556Z,16.08
2024-02-27T13:32:34.472Z,15.86
2024-02-27T13:35:03.124Z,15.67
2024-02-27T13:37:31.224Z,15.93
2024-02-27T13:40:01.453Z,16.22
2024-02-27T13:42:29.810Z,16.97
2024-02-27T13:44:58.335Z,17.18
2024-02-27T13:47:27.005Z,17.84
2024-02-27T13:49:58.545Z,18.04
2024-02-27T13:52:27.300Z,18.80
2024-02-27T13:54:55.988Z,19.39
2024-02-27T13:57:29.136Z,20.25
2024-02-27T13:59:57.896Z,19.52
2024-02-27T14:02:26.533Z,19.07
2024-02-27T14:04:54.639Z,17.87
2024-02-27T14:07:23.668Z,17.27
2024-02-27T14:09:52.337Z,16.92
2024-02-27T14:12:20.968Z,17.13
2024-02-27T14:14:50.921Z,17.27
2024-02-27T14:17:19.468Z,17.12
2024-02-27T14:19:47.751Z,17.06
2024-02-27T14:22:19.638Z,17.47
2024-02-27T14:24:48.182Z,17.89
2024-02-27T14:27:17.104Z,17.68
2024-02-27T14:29:45.981Z,17.30
2024-02-27T14:32:16.048Z,16.86
2024-02-27T14:34:44.236Z,16.54
2024-02-27T14:37:12.851Z,16.30
2024-02-27T14:39:41.484Z,16.22
2024-02-27T14:42:10.002Z,16.11
2024-02-27T14:44:38.458Z,16.14
2024-02-27T14:47:07.183Z,16.00
2024-02-27T14:49:38.455Z,16.01
2024-02-27T14:52:08.441Z,16.08
2024-02-27T14:54:37.308Z,16.00
2024-02-27T14:57:06.095Z,15.79
2024-02-27T14:59:34.631Z,15.67
2024-02-27T15:02:04.854Z,15.48
2024-02-27T15:04:34.119Z,15.36
2024-02-27T15:07:04.933Z,15.28
2024-02-27T15:09:33.625Z,15.20
2024-02-27T15:12:06.838Z,15.16
2024-02-27T15:14:35.461Z,15.12
2024-02-27T15:17:03.965Z,15.10
2024-02-27T15:19:32.093Z,15.06
2024-02-27T15:22:00.848Z,15.03
2024-02-27T15:24:30.696Z,14.99
2024-02-27T15:26:59.229Z,14.96
2024-02-27T15:29:27.766Z,14.89
2024-02-27T15:31:55.811Z,14.85
2024-02-27T15:34:27.594Z,14.81
2024-02-27T15:36:56.243Z,14.76
2024-02-27T15:39:24.795Z,14.71
2024-02-27T15:41:54.648Z,14.64
2024-02-27T15:44:23.231Z,14.58
2024-02-27T15:46:51.343Z,14.53
2024-02-27T15:49:20.062Z,14.48
2024-02-27T15:51:48.781Z,14.40
2024-02-27T15:54:18.667Z,14.33
2024-02-27T15:56:47.463Z,14.26
2024-02-27T15:59:17.388Z,14.19
2024-02-27T16:01:45.694Z,14.11
2024-02-27T16:04:26.508Z,14.02
2024-02-27T16:06:59.004Z,14.00
2024-02-27T16:09:28.503Z,13.98
2024-02-27T16:12:03.834Z,14.00
2024-02-27T16:14:41.802Z,13.97
2024-02-27T16:17:10.294Z,13.87
2024-02-27T16:19:38.624Z,13.80
2024-02-27T16:22:10.894Z,13.73
2024-02-27T16:24:39.605Z,13.68
2024-02-27T16:27:08.289Z,13.65
2024-02-27T16:29:37.092Z,13.60
2024-02-27T16:32:07.657Z,13.53
2024-02-27T16:34:36.212Z,13.44
2024-02-27T16:37:05.232Z,13.37
2024-02-27T16:39:34.055Z,13.30
2024-02-27T16:42:02.662Z,13.22
2024-02-27T16:44:31.209Z,13.15
2024-02-27T16:46:59.733Z,13.08
2024-02-27T16:49:29.441Z,13.01
2024-02-27T16:51:57.907Z,12.96
2024-02-27T16:54:26.659Z,12.92
2024-02-27T16:56:55.214Z,12.89
2024-02-27T16:59:23.886Z,12.85
2024-02-27T17:01:52.002Z,12.84
2024-02-27T17:04:20.859Z,12.81
2024-02-27T17:06:51.076Z,12.79
2024-02-27T17:09:21.145Z,12.74
2024-02-27T17:11:49.700Z,12.71
2024-02-27T17:14:18.630Z,12.64
2024-02-27T17:16:46.684Z,12.55
2024-02-27T17:19:15.415Z,12.47
2024-02-27T17:21:44.486Z,12.41
2024-02-27T17:24:14.542Z,12.32
2024-02-27T17:26:43.017Z,12.27
2024-02-27T17:29:11.526Z,12.21
2024-02-27T17:31:39.555Z,12.14
2024-02-27T17:34:09.173Z,12.12
2024-02-27T17:36:41.343Z,12.08
2024-02-27T17:39:10.640Z,11.99
2024-02-27T17:41:40.654Z,11.94
2024-02-27T17:44:09.182Z,11.90
2024-02-27T17:46:37.332Z,11.87
2024-02-27T17:49:06.013Z,11.87
2024-02-27T17:51:34.656Z,11.88
2024-02-27T17:54:03.518Z,11.89
2024-02-27T17:56:32.055Z,11.89
2024-02-27T17:59:02.601Z,11.86
2024-02-27T18:01:31.805Z,11.86
2024-02-27T18:04:00.701Z,11.84
2024-02-27T18:06:29.779Z,11.90
2024-02-27T18:08:58.728Z,11.92
2024-02-27T18:11:27.596Z,11.90
2024-02-27T18:13:55.900Z,11.86
2024-02-27T18:16:26.034Z,11.84
2024-02-27T18:18:54.759Z,11.84
2024-02-27T18:21:23.366Z,11.83
2024-02-27T18:23:52.140Z,11.87
2024-02-27T18:26:21.703Z,11.85
2024-02-27T18:28:50.168Z,11.83
2024-02-27T18:31:26.331Z,11.88
2024-02-27T18:33:55.270Z,11.91
2024-02-27T18:36:23.851Z,11.96
2024-02-27T18:38:53.170Z,11.93
2024-02-27T18:41:23.769Z,11.94
2024-02-27T18:43:52.125Z,11.88
2024-02-27T18:46:22.984Z,11.84
2024-02-27T18:48:53.713Z,11.80
2024-02-27T18:51:22.353Z,11.78
2024-02-27T18:53:56.021Z,11.73
2024-02-27T18:56:28.006Z,11.68
2024-02-27T18:58:56.540Z,11.64
2024-02-27T19:01:25.721Z,11.62
2024-02-27T19:03:55.938Z,11.59
2024-02-27T19:06:24.602Z,11.59
2024-02-27T19:08:54.596Z,11.53
2024-02-27T19:11:23.457Z,11.52
2024-02-27T19:13:53.723Z,11.45
2024-02-27T19:16:22.574Z,11.43
2024-02-27T19:18:51.159Z,11.51
2024-02-27T19:21:22.936Z,11.52
2024-02-27T19:23:51.446Z,11.52
2024-02-27T19:26:20.406Z,11.48
2024-02-27T19:28:48.438Z,11.40
2024-02-27T19:31:18.105Z,11.35
2024-02-27T19:33:46.668Z,11.26
2024-02-27T19:36:15.215Z,11.19
2024-02-27T19:38:45.239Z,11.12
2024-02-27T19:41:13.730Z,11.07
2024-02-27T19:43:42.429Z,11.04
2024-02-27T19:46:16.057Z,10.98
2024-02-27T19:48:44.963Z,10.95
2024-02-27T19:51:14.490Z,10.93
2024-02-27T19:53:43.404Z,10.92
2024-02-27T19:56:13.242Z,10.90
2024-02-27T19:58:41.424Z,10.90
2024-02-27T20:01:10.205Z,10.92
2024-02-27T20:03:38.785Z,10.93
2024-02-27T20:06:07.455Z,10.94
2024-02-27T20:08:36.074Z,10.98
2024-02-27T20:11:05.026Z,10.97
2024-02-27T20:13:34.479Z,11.02
2024-02-27T20:16:03.283Z,11.01
2024-02-27T20:18:35.821Z,11.02
2024-02-27T20:21:05.473Z,11.05
2024-02-27T20:23:34.612Z,11.04
2024-02-27T20:26:06.919Z,11.08
2024-02-27T20:28:37.986Z,11.11
2024-02-27T20:31:06.630Z,11.04
2024-02-27T20:33:36.043Z,10.97
2024-02-27T20:36:05.565Z,10.91
2024-02-27T20:38:34.131Z,10.83
2024-02-27T20:41:03.501Z,10.76
2024-02-27T20:43:32.193Z,10.77
2024-02-27T20:46:02.039Z,10.79
2024-02-27T20:48:30.857Z,10.74
2024-02-27T20:50:59.602Z,10.72
2024-02-27T20:53:28.094Z,10.72
2024-02-27T20:55:56.294Z,10.80
2024-02-27T20:58:24.845Z,10.77
2024-02-27T21:00:54.749Z,10.73
2024-02-27T21:03:26.860Z,10.75
2024-02-27T21:05:57.561Z,10.78
2024-02-27T21:08:27.207Z,10.79
2024-02-27T21:10:57.851Z,10.80
2024-02-27T21:13:27.384Z,10.82
2024-02-27T21:15:58.770Z,10.81
2024-02-27T21:18:28.763Z,10.80
2024-02-27T21:20:58.456Z,10.82
2024-02-27T21:23:26.993Z,10.83
2024-02-27T21:25:57.310Z,10.85
2024-02-27T21:28:27.210Z,10.85
2024-02-27T21:30:56.034Z,10.86
2024-02-27T21:33:24.786Z,10.85
2024-02-27T21:35:54.957Z,10.85
2024-02-27T21:38:23.566Z,10.85
2024-02-27T21:40:51.669Z,10.93
2024-02-27T21:43:20.252Z,10.96
2024-02-27T21:45:48.819Z,10.94
2024-02-27T21:48:20.597Z,10.99
2024-02-27T21:50:54.631Z,10.98
2024-02-27T21:53:40.829Z,10.98
2024-02-27T21:56:17.497Z,10.99
2024-02-27T21:58:53.704Z,11.02
2024-02-27T22:01:27.790Z,11.03
2024-02-27T22:04:01.201Z,11.01
2024-02-27T22:06:36.101Z,10.99
2024-02-27T22:09:06.632Z,10.99
2024-02-27T22:11:35.175Z,10.98
2024-02-27T22:14:03.900Z,10.96
2024-02-27T22:16:32.122Z,10.96
2024-02-27T22:19:01.072Z,10.99
2024-02-27T22:21:30.904Z,10.98
2024-02-27T22:24:01.021Z,10.97
2024-02-27T22:26:30.871Z,10.97
2024-02-27T22:28:59.362Z,10.97
2024-02-27T22:31:27.769Z,10.96
2024-02-27T22:33:56.377Z,10.94
2024-02-27T22:36:25.717Z,10.94
2024-02-27T22:38:54.387Z,10.93
2024-02-27T22:41:23.295Z,10.89
2024-02-27T22:43:52.641Z,10.87
2024-02-27T22:46:25.665Z,10.85
2024-02-27T22:48:54.274Z,10.84
2024-02-27T22:51:22.904Z,10.82
2024-02-27T22:53:51.787Z,10.79
2024-02-27T22:56:20.329Z,10.73
2024-02-27T22:58:48.393Z,10.70
2024-02-27T23:01:18.296Z,10.69
2024-02-27T23:03:46.915Z,10.70
2024-02-27T23:06:15.568Z,10.72
2024-02-27T23:08:44.117Z,10.73
2024-02-27T23:11:12.729Z,10.76
2024-02-27T23:13:40.782Z,10.75
2024-02-27T23:16:09.298Z,10.73
2024-02-27T23:18:40.072Z,10.70
2024-02-27T23:21:08.704Z,10.64
2024-02-27T23:23:37.185Z,10.56
2024-02-27T23:26:05.697Z,10.54
2024-02-27T23:28:33.688Z,10.50
2024-02-27T23:31:02.677Z,10.49
2024-02-27T23:33:33.288Z,10.47
2024-02-27T23:36:03.209Z,10.43
2024-02-27T23:38:31.763Z,10.43
2024-02-27T23:41:02.483Z,10.44
2024-02-27T23:43:33.034Z,10.39
2024-02-27T23:46:02.257Z,10.35
2024-02-27T23:48:31.182Z,10.30
2024-02-27T23:50:59.641Z,10.27
2024-02-27T23:53:29.512Z,10.26
2024-02-27T23:55:57.587Z,10.25
2024-02-27T23:58:26.107Z,10.26
